Time;durP1;ratioP1;P1;durP2;ratioP2;P2;SDS_P1;SDS_P2;PMS_P1;PMS_P2;Temp;Humidity;BMP_temperature;BMP_pressure;BME280_temperature;BME280_humidity;BME280_pressure;Samples;Min_cycle;Max_cycle;Signal;HPM_P1;HPM_P2
2021/07/20 00:02:32;;;;;;;9.60;4.13;;;;;;;25.45;51.94;99631.06;5031614;28;20151;-66
2021/07/20 00:04:58;;;;;;;8.32;3.90;;;;;;;25.52;51.70;99643.13;5021219;28;20025;-68
2021/07/20 00:07:23;;;;;;;7.78;3.80;;;;;;;25.55;51.26;99644.78;5011355;28;20060;-66
2021/07/20 00:09:49;;;;;;;10.82;4.03;;;;;;;25.41;51.52;99633.88;5010674;28;20084;-69
2021/07/20 00:12:14;;;;;;;8.00;3.47;;;;;;;25.41;51.51;99647.06;5013238;28;20034;-67
2021/07/20 00:14:40;;;;;;;10.18;4.20;;;;;;;25.20;51.52;99623.16;5013007;28;20018;-68
2021/07/20 00:17:06;;;;;;;8.65;4.03;;;;;;;25.13;51.44;99632.25;5012116;28;20481;-68
2021/07/20 00:19:32;;;;;;;7.20;3.70;;;;;;;24.99;51.99;99620.38;5013639;28;20025;-67
2021/07/20 00:21:57;;;;;;;12.80;3.85;;;;;;;24.89;51.85;99607.59;5034563;28;20481;-65
2021/07/20 00:24:23;;;;;;;6.40;3.35;;;;;;;24.77;51.71;99596.53;5030445;28;20082;-66
2021/07/20 00:26:48;;;;;;;4.50;2.65;;;;;;;25.11;50.44;99629.66;5028095;28;20496;-66
2021/07/20 00:29:14;;;;;;;8.15;3.10;;;;;;;24.82;50.69;99586.69;5028177;28;20065;-68
2021/07/20 00:31:39;;;;;;;6.78;3.17;;;;;;;25.08;50.29;99613.06;5027967;28;20042;-68
2021/07/20 00:34:06;;;;;;;7.13;3.40;;;;;;;25.10;50.90;99627.09;5028122;28;20029;-65
2021/07/20 00:36:32;;;;;;;8.63;3.15;;;;;;;24.78;50.46;99619.38;5011939;28;20117;-65
2021/07/20 00:38:58;;;;;;;6.00;3.00;;;;;;;24.69;50.35;99617.94;5028334;28;20072;-67
2021/07/20 00:41:23;;;;;;;6.22;3.00;;;;;;;24.65;50.05;99626.00;5028012;28;20440;-65
2021/07/20 00:43:48;;;;;;;4.75;2.70;;;;;;;24.61;50.95;99635.78;5025885;28;20600;-68
2021/07/20 00:46:14;;;;;;;8.15;3.15;;;;;;;24.54;51.11;99629.00;5028570;28;20425;-69
2021/07/20 00:48:39;;;;;;;4.93;3.08;;;;;;;24.47;51.37;99628.31;5028374;28;20110;-67
2021/07/20 00:51:05;;;;;;;5.47;2.97;;;;;;;24.47;50.56;99635.41;5028078;28;20046;-68
2021/07/20 00:53:30;;;;;;;5.75;3.30;;;;;;;24.48;51.17;99608.09;5028449;28;20522;-69
2021/07/20 00:55:56;;;;;;;5.57;2.85;;;;;;;24.56;51.03;99621.88;5028398;28;20036;-71
2021/07/20 00:58:22;;;;;;;5.43;3.00;;;;;;;24.53;51.71;99622.00;5028576;28;20049;-68
2021/07/20 01:00:51;;;;;;;4.65;2.80;;;;;;;24.53;52.33;99622.00;5028577;28;20080;-68
2021/07/20 01:03:17;;;;;;;8.02;3.13;;;;;;;23.98;52.75;99554.38;5028555;28;20041;-68
2021/07/20 01:05:42;;;;;;;7.70;3.10;;;;;;;24.38;51.96;99624.22;5030792;28;20420;-68
2021/07/20 01:08:09;;;;;;;6.15;3.00;;;;;;;24.38;51.80;99618.94;5031530;28;20511;-68
2021/07/20 01:10:40;;;;;;;5.18;2.70;;;;;;;24.45;51.58;99624.91;5034695;28;20057;-68
2021/07/20 01:13:06;;;;;;;5.68;2.60;;;;;;;24.38;51.07;99618.09;5034224;28;20017;-68
2021/07/20 01:15:33;;;;;;;6.10;2.80;;;;;;;24.43;51.40;99626.72;5034424;28;20033;-68
2021/07/20 01:18:00;;;;;;;6.85;3.33;;;;;;;24.35;51.47;99624.34;5034398;28;20021;-68
2021/07/20 01:20:29;;;;;;;6.93;3.63;;;;;;;24.12;51.70;99593.44;5034016;28;20033;-68
2021/07/20 01:23:20;;;;;;;4.90;2.50;;;;;;;24.46;51.35;99631.91;5033975;28;20472;-67
2021/07/20 01:25:50;;;;;;;4.55;2.80;;;;;;;24.51;50.95;99632.59;5034443;28;20029;-68
2021/07/20 01:28:19;;;;;;;4.53;2.90;;;;;;;24.44;51.08;99635.50;5032071;28;20037;-68
2021/07/20 01:30:47;;;;;;;5.35;2.80;;;;;;;24.48;51.19;99634.47;5034158;28;20121;-68
2021/07/20 01:33:15;;;;;;;4.70;2.85;;;;;;;24.36;51.16;99618.16;5034044;28;20021;-66
2021/07/20 01:35:44;;;;;;;7.25;3.00;;;;;;;24.09;51.20;99566.31;5034437;28;20029;-68
2021/07/20 01:38:11;;;;;;;7.13;3.00;;;;;;;24.55;51.00;99641.28;5027596;28;20032;-68
2021/07/20 01:40:38;;;;;;;6.18;3.25;;;;;;;24.42;51.71;99630.25;5017095;28;20497;-72
2021/07/20 01:43:05;;;;;;;5.65;3.13;;;;;;;24.15;52.49;99647.88;5014350;28;20076;-70
2021/07/20 01:45:33;;;;;;;5.35;3.50;;;;;;;23.88;53.54;99643.38;5013863;28;20037;-68
2021/07/20 01:48:00;;;;;;;5.70;3.05;;;;;;;23.73;54.18;99644.72;5013945;28;20068;-68
2021/07/20 01:50:29;;;;;;;6.10;3.20;;;;;;;23.71;54.79;99658.88;5013883;28;20026;-67
2021/07/20 01:52:57;;;;;;;6.80;3.20;;;;;;;23.73;54.15;99652.63;5014406;28;20049;-68
2021/07/20 01:55:25;;;;;;;5.25;3.20;;;;;;;23.85;53.79;99650.53;5014033;28;20034;-67
2021/07/20 01:57:51;;;;;;;5.63;2.78;;;;;;;23.92;53.48;99657.38;5013694;28;20088;-68
2021/07/20 02:00:18;;;;;;;7.55;2.90;;;;;;;24.00;52.68;99652.75;5014201;28;20040;-68
2021/07/20 02:03:18;;;;;;;5.88;2.60;;;;;;;23.96;52.87;99653.72;5011715;28;20513;-68
2021/07/20 02:08:38;;;;;;;5.68;3.10;;;;;;;23.97;52.66;99654.59;5013810;28;20440;-68
2021/07/20 02:11:13;;;;;;;8.45;2.95;;;;;;;24.02;52.67;99656.16;5012523;28;20026;-70
2021/07/20 02:13:46;;;;;;;12.27;3.55;;;;;;;23.93;52.84;99656.47;5011503;28;20040;-66
2021/07/20 02:16:14;;;;;;;17.05;3.47;;;;;;;23.98;52.67;99651.06;5013505;28;20029;-71
2021/07/20 02:18:45;;;;;;;11.98;3.47;;;;;;;24.02;52.83;99657.94;5013066;28;20033;-70
2021/07/20 02:21:11;;;;;;;5.50;3.40;;;;;;;24.03;52.46;99664.97;5013364;28;20489;-66
2021/07/20 02:23:38;;;;;;;7.50;3.20;;;;;;;24.06;52.66;99663.09;5013319;28;20033;-66
2021/07/20 02:26:05;;;;;;;5.03;3.00;;;;;;;23.81;52.37;99622.56;5013160;28;20033;-68
2021/07/20 02:28:33;;;;;;;6.30;2.80;;;;;;;24.06;52.69;99667.47;5013389;28;20473;-67
2021/07/20 02:31:00;;;;;;;4.60;3.05;;;;;;;24.04;53.41;99677.25;5013074;28;20026;-68
2021/07/20 02:33:27;;;;;;;5.30;3.13;;;;;;;24.04;53.62;99664.06;5013220;28;20030;-66
2021/07/20 02:35:54;;;;;;;5.40;3.33;;;;;;;24.06;53.84;99665.72;5011961;28;20485;-67
2021/07/20 02:38:21;;;;;;;8.05;3.05;;;;;;;24.05;53.26;99671.91;5013053;28;20030;-68
2021/07/20 02:40:49;;;;;;;4.68;3.10;;;;;;;23.92;53.04;99673.19;5013166;28;20025;-70
2021/07/20 02:43:20;;;;;;;4.40;3.05;;;;;;;23.87;53.50;99670.66;5012820;28;20084;-66
2021/07/20 02:45:46;;;;;;;6.45;3.20;;;;;;;23.82;53.42;99674.38;5011846;28;20026;-68
2021/07/20 02:48:13;;;;;;;7.70;3.08;;;;;;;23.73;53.52;99671.09;5012837;28;20084;-71
2021/07/20 02:50:39;;;;;;;6.75;3.50;;;;;;;23.44;53.81;99635.09;5012475;28;20034;-72
2021/07/20 02:53:06;;;;;;;4.97;3.38;;;;;;;23.67;54.20;99673.91;5012894;28;20030;-67
2021/07/20 02:55:33;;;;;;;7.82;3.10;;;;;;;23.62;54.10;99667.91;5012634;28;20030;-67
2021/07/20 02:58:00;;;;;;;7.43;3.20;;;;;;;23.69;53.78;99677.38;5012810;28;20036;-67
2021/07/20 03:00:27;;;;;;;5.18;3.28;;;;;;;23.76;53.64;99680.66;5012641;28;20095;-70
2021/07/20 03:02:54;;;;;;;7.85;3.53;;;;;;;23.79;53.69;99683.22;5032297;28;20083;-69
2021/07/20 03:05:20;;;;;;;5.95;4.03;;;;;;;23.72;53.85;99686.94;5032584;28;20026;-67
2021/07/20 03:07:51;;;;;;;7.40;3.50;;;;;;;23.52;54.66;99685.75;5032712;28;20026;-66
2021/07/20 03:10:19;;;;;;;5.40;3.20;;;;;;;23.18;55.16;99656.88;5032427;28;20024;-68
2021/07/20 03:12:46;;;;;;;8.85;3.83;;;;;;;23.30;55.94;99703.94;5032278;28;20041;-70
2021/07/20 03:15:14;;;;;;;6.57;3.33;;;;;;;23.12;55.97;99701.81;5031943;28;20108;-66
2021/07/20 03:17:40;;;;;;;7.60;3.40;;;;;;;22.91;56.49;99702.31;5031910;28;20389;-72
2021/07/20 03:20:09;;;;;;;6.13;3.58;;;;;;;22.86;56.54;99703.38;5031681;28;20029;-70
2021/07/20 03:22:37;;;;;;;9.13;3.42;;;;;;;22.86;56.46;99708.63;5029650;28;20049;-68
2021/07/20 03:25:06;;;;;;;5.82;3.65;;;;;;;22.93;56.63;99702.31;5031770;28;20029;-72
2021/07/20 03:27:34;;;;;;;5.50;3.25;;;;;;;22.73;56.79;99680.00;5031660;28;20033;-68
2021/07/20 03:30:01;;;;;;;5.50;3.20;;;;;;;22.83;57.00;99692.91;5031976;28;20114;-68
2021/07/20 03:32:28;;;;;;;7.78;2.97;;;;;;;22.85;57.67;99702.47;5031498;28;20037;-67
2021/07/20 03:34:55;;;;;;;7.40;3.63;;;;;;;22.77;57.77;99705.31;5031988;28;20103;-69
2021/07/20 03:37:22;;;;;;;5.10;3.28;;;;;;;22.36;58.47;99669.50;5031552;28;20025;-72
2021/07/20 03:39:48;;;;;;;5.95;3.50;;;;;;;22.47;59.13;99706.97;5046200;28;20041;-67
2021/07/20 03:42:15;;;;;;;10.15;3.85;;;;;;;22.61;59.27;99711.88;5031960;28;20045;-68
2021/07/20 03:44:41;;;;;;;6.30;3.42;;;;;;;22.67;59.50;99716.97;5031497;28;20079;-68
2021/07/20 03:47:08;;;;;;;7.70;3.38;;;;;;;22.71;58.92;99723.03;5030293;28;20037;-67
2021/07/20 03:49:34;;;;;;;6.43;3.53;;;;;;;22.80;59.48;99711.41;5031436;28;20033;-67
2021/07/20 03:52:02;;;;;;;9.13;3.92;;;;;;;22.73;58.84;99714.19;5031507;28;20103;-67
2021/07/20 03:54:31;;;;;;;10.10;3.80;;;;;;;22.35;60.17;99715.97;5031378;28;20507;-67
2021/07/20 03:56:58;;;;;;;7.70;3.65;;;;;;;21.71;62.49;99723.50;5031359;28;20033;-67
2021/07/20 03:59:25;;;;;;;6.95;3.67;;;;;;;21.63;63.13;99744.69;5031384;28;20033;-67
2021/07/20 04:01:52;;;;;;;10.23;4.05;;;;;;;21.77;63.01;99715.50;5031197;28;20034;-68
2021/07/20 04:04:21;;;;;;;7.35;4.40;;;;;;;21.65;63.36;99690.38;5031681;28;20040;-68
2021/07/20 04:06:48;;;;;;;9.48;4.25;;;;;;;21.98;63.41;99732.56;5031122;28;20446;-68
2021/07/20 04:09:14;;;;;;;13.80;4.55;;;;;;;22.16;63.07;99736.56;5030899;28;20469;-67
2021/07/20 04:11:40;;;;;;;12.07;3.67;;;;;;;22.31;62.86;99743.25;5030039;28;20473;-69
2021/07/20 04:14:09;;;;;;;8.85;3.97;;;;;;;22.44;62.90;99746.47;5030975;28;20072;-67
2021/07/20 04:16:36;;;;;;;5.97;3.75;;;;;;;22.56;62.54;99735.66;5031031;28;20029;-67
2021/07/20 04:19:02;;;;;;;9.65;4.40;;;;;;;22.74;62.49;99739.63;5031387;28;20034;-68
2021/07/20 04:21:28;;;;;;;8.57;3.75;;;;;;;22.88;62.26;99744.53;5031406;28;20040;-68
2021/07/20 04:23:54;;;;;;;9.95;4.20;;;;;;;;;;5030948;28;20025;-67
2021/07/20 04:26:21;;;;;;;6.55;3.85;;;;;;;22.76;62.10;99705.34;5031415;28;20465;-66
2021/07/20 04:28:46;;;;;;;7.65;3.92;;;;;;;23.17;61.96;99744.72;5031251;28;20033;-71
2021/07/20 04:31:15;;;;;;;7.88;3.63;;;;;;;23.18;61.90;99747.28;5031323;28;20487;-67
2021/07/20 04:33:45;;;;;;;9.88;4.05;;;;;;;23.35;61.85;99752.13;5032105;28;20041;-69
2021/07/20 04:36:12;;;;;;;9.68;3.70;;;;;;;23.40;62.57;99759.88;5030948;28;20026;-68
2021/07/20 04:38:39;;;;;;;9.80;4.13;;;;;;;23.48;62.44;99755.25;5031162;28;20039;-66
2021/07/20 04:41:06;;;;;;;8.90;4.32;;;;;;;23.56;62.39;99755.03;5030653;28;20064;-68
2021/07/20 04:43:32;;;;;;;6.75;3.95;;;;;;;23.63;62.95;99759.22;5034399;28;20116;-66
2021/07/20 04:45:59;;;;;;;10.57;4.65;;;;;;;23.72;62.94;99758.97;5035103;28;20060;-67
2021/07/20 04:48:25;;;;;;;9.60;4.38;;;;;;;23.74;62.52;99765.06;5033806;28;20083;-68
2021/07/20 04:50:52;;;;;;;8.10;4.05;;;;;;;23.81;62.47;99763.09;5033461;28;20409;-69
2021/07/20 04:53:18;;;;;;;9.90;4.32;;;;;;;23.77;63.41;99757.97;5034720;28;20045;-68
2021/07/20 04:55:46;;;;;;;11.75;5.10;;;;;;;23.84;63.45;99760.38;5034753;28;20029;-69
2021/07/20 04:58:14;;;;;;;10.85;5.35;;;;;;;23.65;63.55;99722.28;5034689;28;20029;-68
2021/07/20 05:00:49;;;;;;;12.63;4.43;;;;;;;23.74;62.66;99719.41;5034707;28;20029;-68
2021/07/20 05:03:15;;;;;;;11.13;4.88;;;;;;;24.04;62.71;99758.97;5034551;28;20029;-68
2021/07/20 05:05:43;;;;;;;8.48;4.55;;;;;;;24.08;63.29;99762.38;5034759;28;20071;-67
2021/07/20 05:08:13;;;;;;;7.43;4.50;;;;;;;24.00;63.12;99758.19;5034319;28;20109;-66
2021/07/20 05:10:40;;;;;;;10.23;4.28;;;;;;;24.08;62.87;99759.75;5034262;28;20029;-67
2021/07/20 05:13:08;;;;;;;8.10;3.83;;;;;;;24.12;63.14;99762.22;5034118;28;20080;-66
2021/07/20 05:15:34;;;;;;;10.40;4.63;;;;;;;23.96;63.13;99722.28;5034242;28;20026;-66
2021/07/20 05:18:01;;;;;;;11.75;4.55;;;;;;;24.19;63.69;99761.13;5034431;28;20032;-67
2021/07/20 05:20:28;;;;;;;11.13;4.55;;;;;;;24.18;63.87;99763.81;5051704;28;20134;-68
2021/07/20 05:22:55;;;;;;;9.30;4.00;;;;;;;24.25;63.50;99775.91;5051726;28;20100;-65
2021/07/20 05:25:21;;;;;;;9.35;4.75;;;;;;;24.29;63.87;99767.00;5051904;28;20532;-68
2021/07/20 05:27:52;;;;;;;8.77;4.43;;;;;;;24.22;63.37;99770.72;5051897;28;20086;-68
2021/07/20 05:30:18;;;;;;;7.32;4.97;;;;;;;24.30;62.72;99770.47;5051532;28;20101;-66
2021/07/20 05:32:45;;;;;;;9.82;4.65;;;;;;;24.34;62.25;99777.41;5051616;28;20036;-67
2021/07/20 05:35:16;;;;;;;9.27;4.85;;;;;;;24.17;61.88;99738.34;5051594;28;20037;-67
2021/07/20 05:37:43;;;;;;;10.77;5.10;;;;;;;24.52;62.36;99783.84;5051534;28;20068;-67
2021/07/20 05:40:17;;;;;;;9.73;5.60;;;;;;;24.31;62.45;99744.06;5051500;28;20037;-69
2021/07/20 05:42:43;;;;;;;9.23;5.13;;;;;;;24.54;61.88;99787.31;5051261;28;20087;-67
2021/07/20 05:45:11;;;;;;;9.07;6.05;;;;;;;24.69;60.63;99781.56;5051312;28;20037;-67
2021/07/20 05:47:41;;;;;;;8.77;5.90;;;;;;;24.75;61.06;99791.09;5051392;28;20033;-68
2021/07/20 05:50:08;;;;;;;10.50;5.25;;;;;;;24.79;61.23;99797.97;5051266;28;20523;-68
2021/07/20 05:52:40;;;;;;;9.68;5.78;;;;;;;24.78;60.68;99795.41;5033635;28;20068;-67
2021/07/20 05:55:09;;;;;;;10.20;5.80;;;;;;;24.81;60.65;99771.53;5033295;28;20516;-68
2021/07/20 05:57:39;;;;;;;8.77;5.70;;;;;;;25.05;60.14;99777.78;5032623;28;20374;-66
2021/07/20 06:00:10;;;;;;;8.48;6.05;;;;;;;24.96;60.61;99778.94;5033397;28;20037;-66
2021/07/20 06:02:38;;;;;;;10.32;6.15;;;;;;;24.98;60.85;99794.72;5033153;28;20029;-67
2021/07/20 06:05:05;;;;;;;10.25;5.80;;;;;;;24.84;60.32;99752.94;5033507;28;20041;-68
2021/07/20 06:07:31;;;;;;;10.80;6.70;;;;;;;25.09;60.60;99783.81;5033540;28;20026;-69
2021/07/20 06:09:58;;;;;;;10.13;6.07;;;;;;;24.84;62.17;99753.81;5033169;28;20481;-68
2021/07/20 06:12:26;;;;;;;11.02;7.20;;;;;;;25.14;60.79;99797.72;5033450;28;20022;-66
2021/07/20 06:14:54;;;;;;;10.82;6.57;;;;;;;25.09;61.45;99794.38;5033088;28;20120;-68
2021/07/20 06:17:24;;;;;;;11.50;7.88;;;;;;;25.00;61.01;99791.13;5028407;28;20420;-66
2021/07/20 06:19:51;;;;;;;11.43;6.63;;;;;;;24.92;61.65;99787.88;5019211;28;20033;-68
2021/07/20 06:22:18;;;;;;;11.40;8.35;;;;;;;24.82;63.82;99786.44;5013555;28;20026;-66
2021/07/20 06:24:45;;;;;;;13.70;7.97;;;;;;;24.89;63.74;99787.97;5013231;28;20037;-71
2021/07/20 06:27:13;;;;;;;15.00;8.32;;;;;;;24.92;62.28;99779.94;5013226;28;20033;-68
2021/07/20 06:29:42;;;;;;;12.18;8.80;;;;;;;25.03;62.15;99795.44;5013402;28;20496;-70
2021/07/20 06:32:09;;;;;;;10.95;9.07;;;;;;;25.17;60.24;99781.75;5013339;28;20109;-66
2021/07/20 06:34:36;;;;;;;11.48;8.25;;;;;;;25.18;60.00;99767.63;5013423;28;20034;-68
2021/07/20 06:37:03;;;;;;;14.15;9.02;;;;;;;25.37;58.85;99796.09;5011985;28;20026;-68
2021/07/20 06:39:29;;;;;;;12.95;8.60;;;;;;;25.42;59.58;99791.50;5012741;28;20409;-70
2021/07/20 06:41:56;;;;;;;12.38;8.23;;;;;;;25.31;60.43;99789.19;5012941;28;20033;-66
2021/07/20 06:44:23;;;;;;;11.45;8.90;;;;;;;25.21;59.83;99793.97;5011639;28;20045;-66
2021/07/20 06:46:50;;;;;;;12.75;10.27;;;;;;;25.18;60.50;99791.41;5012921;28;20034;-68
2021/07/20 06:49:18;;;;;;;13.40;10.02;;;;;;;25.17;61.84;99779.09;5013387;28;20069;-68
2021/07/20 06:51:45;;;;;;;12.13;10.48;;;;;;;25.23;61.72;99793.91;5012699;28;20112;-71
2021/07/20 06:54:10;;;;;;;14.95;9.85;;;;;;;25.29;59.46;99789.25;5012975;28;20050;-68
2021/07/20 06:56:40;;;;;;;14.43;9.90;;;;;;;25.49;58.50;99785.94;5012491;28;20396;-67
2021/07/20 06:59:06;;;;;;;14.82;10.10;;;;;;;25.67;57.88;99780.88;5012937;28;20113;-68
2021/07/20 07:01:36;;;;;;;12.18;9.68;;;;;;;25.77;57.80;99766.44;5011533;28;20041;-67
2021/07/20 07:04:15;;;;;;;15.95;10.60;;;;;;;25.87;56.92;99779.31;5012362;28;20406;-66
2021/07/20 07:06:44;;;;;;;12.05;9.93;;;;;;;25.87;56.56;99766.97;5011431;28;20509;-68
2021/07/20 07:09:11;;;;;;;18.13;10.48;;;;;;;26.04;57.78;99768.09;5012103;28;20034;-68
2021/07/20 07:11:38;;;;;;;14.85;9.90;;;;;;;26.16;57.25;99763.22;5012422;28;20026;-68
2021/07/20 07:14:05;;;;;;;13.90;9.75;;;;;;;26.20;56.38;99777.19;5012453;28;20034;-68
2021/07/20 07:16:31;;;;;;;15.70;10.00;;;;;;;26.40;57.01;99776.38;5012368;28;20049;-68
2021/07/20 07:18:57;;;;;;;15.35;10.05;;;;;;;26.37;57.86;99768.59;5027577;28;20033;-72
2021/07/20 07:21:23;;;;;;;14.00;9.00;;;;;;;26.49;56.50;99775.16;5026348;28;20626;-67
2021/07/20 07:23:52;;;;;;;19.90;9.95;;;;;;;26.53;59.17;99766.19;5032121;28;20108;-73
2021/07/20 07:26:20;;;;;;;12.73;10.38;;;;;;;26.44;56.91;99771.84;5031175;28;20115;-66
2021/07/20 07:28:49;;;;;;;14.75;10.85;;;;;;;26.27;55.84;99720.47;5031360;28;20036;-68
2021/07/20 07:31:18;;;;;;;13.68;11.57;;;;;;;26.69;56.42;99789.38;5031724;28;20163;-69
2021/07/20 07:33:44;;;;;;;15.55;10.50;;;;;;;26.80;55.29;99782.75;5031150;28;20049;-67
2021/07/20 07:36:11;;;;;;;14.55;10.32;;;;;;;26.95;54.76;99781.25;5031074;28;20033;-68
2021/07/20 07:38:40;;;;;;;10.75;9.05;;;;;;;27.14;53.28;99783.09;5031079;28;20392;-72
2021/07/20 07:41:06;;;;;;;14.20;10.27;;;;;;;27.14;53.81;99777.81;5034104;28;20469;-66
2021/07/20 07:43:34;;;;;;;12.30;10.20;;;;;;;27.15;56.32;99781.31;5028912;28;20036;-67
2021/07/20 07:46:02;;;;;;;11.70;9.90;;;;;;;27.11;54.46;99788.53;5012914;28;20113;-67
2021/07/20 07:48:28;;;;;;;12.80;10.15;;;;;;;26.88;55.50;99763.91;5014060;28;20034;-72
2021/07/20 07:50:55;;;;;;;14.90;10.88;;;;;;;27.07;54.69;99787.81;5011780;28;20057;-71
2021/07/20 07:53:21;;;;;;;13.52;10.32;;;;;;;27.16;53.93;99773.31;5012608;28;20128;-72
2021/07/20 07:55:50;;;;;;;14.43;10.40;;;;;;;27.18;54.61;99775.88;5013236;28;20101;-68
2021/07/20 07:58:16;;;;;;;15.57;10.80;;;;;;;27.35;53.06;99769.84;5012184;28;20449;-66
2021/07/20 08:00:43;;;;;;;13.05;9.90;;;;;;;27.48;52.63;99770.19;5008689;28;20026;-69
2021/07/20 08:03:13;;;;;;;17.63;10.40;;;;;;;27.63;52.36;99758.03;5011159;28;20026;-69
2021/07/20 08:05:39;;;;;;;11.77;10.07;;;;;;;27.59;52.38;99752.00;5025872;28;20393;-68
2021/07/20 08:08:08;;;;;;;13.70;9.40;;;;;;;27.44;52.98;99762.41;5011722;28;20144;-68
2021/07/20 08:10:34;;;;;;;11.63;9.13;;;;;;;27.36;52.46;99755.69;5011704;28;20481;-66
2021/07/20 08:13:04;;;;;;;12.13;10.38;;;;;;;27.09;52.57;99730.34;5012836;28;20022;-65
2021/07/20 08:15:31;;;;;;;13.93;9.82;;;;;;;27.37;52.65;99752.97;5010479;28;20417;-67
2021/07/20 08:17:57;;;;;;;14.93;10.13;;;;;;;27.66;52.27;99763.22;5024957;28;20038;-67
2021/07/20 08:20:24;;;;;;;13.63;9.18;;;;;;;27.70;52.01;99759.50;5010741;28;20100;-66
2021/07/20 08:22:50;;;;;;;15.98;10.02;;;;;;;27.74;51.76;99767.25;5015235;28;20022;-68
2021/07/20 08:25:24;;;;;;;13.30;9.60;;;;;;;27.48;51.54;99722.47;5010643;28;20079;-69
2021/07/20 08:28:00;;;;;;;12.93;9.80;;;;;;;27.79;50.88;99764.38;5014353;28;20034;-69
2021/07/20 08:30:30;;;;;;;15.13;9.75;;;;;;;27.91;50.63;99757.63;5017528;28;20029;-65
2021/07/20 08:32:58;;;;;;;12.52;9.52;;;;;;;28.07;50.30;99765.78;5014893;28;20412;-64
2021/07/20 08:35:29;;;;;;;14.00;9.75;;;;;;;28.16;49.96;99760.03;5013856;28;20076;-66
2021/07/20 08:37:58;;;;;;;13.00;8.85;;;;;;;28.03;49.54;99757.06;5016938;28;20075;-68
2021/07/20 08:40:26;;;;;;;14.20;9.23;;;;;;;28.05;50.07;99760.56;5012826;28;20508;-68
2021/07/20 08:43:12;;;;;;;14.02;9.82;;;;;;;28.05;50.07;99762.31;5014930;28;20065;-70
2021/07/20 08:46:00;;;;;;;14.20;9.65;;;;;;;27.91;49.33;99729.34;5023522;28;20032;-66
2021/07/20 08:48:52;;;;;;;27.43;10.37;;;;;;;28.23;48.88;99753.50;5026284;28;20117;-70
2021/07/20 08:51:37;;;;;;;11.98;8.30;;;;;;;28.28;48.92;99755.94;5014591;28;20473;-65
2021/07/20 08:54:15;;;;;;;17.33;9.77;;;;;;;28.20;49.15;99743.03;5015270;28;20049;-67
2021/07/20 08:56:44;;;;;;;18.25;9.57;;;;;;;28.52;49.05;99753.03;5016124;28;20417;-66
2021/07/20 08:59:17;;;;;;;22.20;9.27;;;;;;;28.60;48.26;99740.22;5013512;28;20048;-69
2021/07/20 09:01:51;;;;;;;14.35;8.60;;;;;;;28.84;47.67;99754.09;5018997;28;20030;-65
2021/07/20 09:04:24;;;;;;;16.58;8.90;;;;;;;28.98;48.57;99739.25;5019963;28;20040;-65
2021/07/20 09:07:09;;;;;;;12.07;8.80;;;;;;;28.90;47.44;99739.66;5011786;28;20025;-65
2021/07/20 09:09:47;;;;;;;19.15;9.13;;;;;;;29.07;48.08;99748.53;5012682;28;20030;-64
2021/07/20 09:12:24;;;;;;;12.93;7.13;;;;;;;29.34;47.08;99749.78;5010983;28;20048;-68
2021/07/20 09:15:01;;;;;;;10.98;7.00;;;;;;;29.57;45.92;99742.38;5015568;28;20032;-66
2021/07/20 09:17:57;;;;;;;10.60;6.55;;;;;;;29.63;46.85;99710.13;5030162;28;20018;-68
2021/07/20 09:20:26;;;;;;;8.57;5.47;;;;;;;29.92;47.10;99728.13;5030125;28;20521;-66
2021/07/20 09:23:03;;;;;;;6.97;4.95;;;;;;;29.93;47.34;99743.16;5030381;28;20026;-71
2021/07/20 09:25:32;;;;;;;7.57;4.75;;;;;;;29.99;44.13;99737.47;5022322;28;20034;-64
2021/07/20 09:28:18;;;;;;;9.38;4.38;;;;;;;29.91;44.70;99737.91;5026108;28;20029;-68
2021/07/20 09:30:47;;;;;;;7.43;4.57;;;;;;;30.16;43.42;99734.72;5033338;28;20018;-68
2021/07/20 09:33:43;;;;;;;13.88;4.95;;;;;;;30.54;42.81;99737.97;5033427;28;20017;-67
2021/07/20 09:36:17;;;;;;;7.22;4.22;;;;;;;30.53;41.84;99737.13;5033533;28;20116;-68
2021/07/20 09:39:10;;;;;;;10.48;4.97;;;;;;;30.54;44.95;99733.50;5026974;28;20100;-67
2021/07/20 09:41:46;;;;;;;7.95;4.50;;;;;;;30.53;43.80;99733.59;5018036;28;20032;-68
2021/07/20 09:44:45;;;;;;;9.85;4.88;;;;;;;30.54;44.65;99733.50;5014305;28;20413;-66
2021/07/20 09:47:13;;;;;;;;;;;;;;;30.41;43.43;99732.50;4972791;28;20093;-67
2021/07/20 09:49:38;;;;;;;6.93;5.43;;;;;;;30.47;45.51;99730.31;4960226;28;21135;-67
2021/07/20 09:52:42;;;;;;;9.40;5.32;;;;;;;30.74;43.49;99732.31;4955778;28;20046;-67
2021/07/20 09:55:23;;;;;;;10.93;5.50;;;;;;;30.78;43.34;99709.03;4948455;29;20039;-70
2021/07/20 09:58:03;;;;;;;8.77;5.55;;;;;;;30.89;42.56;99716.38;4951568;29;20506;-67
2021/07/20 10:00:41;;;;;;;10.32;5.45;;;;;;;31.20;39.85;99715.41;4951879;29;20035;-68
2021/07/20 10:03:45;;;;;;;13.55;5.80;;;;;;;30.50;40.83;99724.81;4949039;28;20030;-66
2021/07/20 10:06:17;;;;;;;6.80;5.20;;;;;;;30.71;40.13;99713.88;4934085;29;20474;-69
2021/07/20 10:08:48;;;;;;;7.45;5.82;;;;;;;31.27;41.46;99708.75;4936511;29;20043;-73
2021/07/20 10:11:19;;;;;;;14.65;6.20;;;;;;;31.43;41.10;99692.66;4952573;29;20190;-69
2021/07/20 10:13:51;;;;;;;7.65;6.05;;;;;;;31.52;40.92;99706.38;4952759;29;20521;-69
2021/07/20 10:16:26;;;;;;;7.18;5.70;;;;;;;31.13;39.20;99708.75;4952590;29;20464;-70
2021/07/20 10:19:34;;;;;;;11.43;6.45;;;;;;;31.05;37.81;99706.50;4952297;28;20118;-69
2021/07/20 10:22:03;;;;;;;12.20;6.55;;;;;;;31.39;38.52;99704.47;4896370;29;20068;-69
2021/07/20 10:24:31;;;;;;;12.05;6.28;;;;;;;31.48;40.48;99694.16;4930200;29;20156;-68
2021/07/20 10:27:08;;;;;;;9.80;6.57;;;;;;;31.85;39.10;99695.41;4933768;29;20050;-71
2021/07/20 10:29:45;;;;;;;8.93;6.05;;;;;;;32.19;35.93;99695.00;4934079;29;20027;-69
2021/07/20 10:32:22;;;;;;;9.07;5.78;;;;;;;32.09;36.85;99682.25;4969658;28;20460;-70
2021/07/20 10:34:54;;;;;;;8.57;5.88;;;;;;;31.69;36.63;99687.53;4991815;28;20093;-69
2021/07/20 10:37:27;;;;;;;8.73;6.25;;;;;;;32.10;36.68;99681.31;4991734;28;20041;-67
2021/07/20 10:40:16;;;;;;;7.97;6.18;;;;;;;32.16;36.06;99687.19;4991447;28;20045;-68
2021/07/20 10:42:53;;;;;;;12.90;7.03;;;;;;;32.23;35.39;99653.81;4991479;28;20045;-67
2021/07/20 10:45:19;;;;;;;9.15;6.97;;;;;;;32.56;35.55;99679.22;4991258;28;20038;-70
2021/07/20 10:47:56;;;;;;;9.70;6.80;;;;;;;32.63;34.01;99675.16;4991424;28;20034;-67
2021/07/20 10:50:57;;;;;;;9.38;7.53;;;;;;;32.98;33.38;99665.72;4991452;28;20034;-68
2021/07/20 10:53:48;;;;;;;9.50;7.38;;;;;;;32.99;35.33;99652.25;4991503;28;20046;-68
2021/07/20 10:56:40;;;;;;;9.13;7.22;;;;;;;33.32;35.43;99658.88;4991198;28;20050;-69
2021/07/20 10:59:47;;;;;;;12.63;8.25;;;;;;;33.32;35.88;99650.84;5021990;28;20602;-68
2021/07/20 11:03:11;;;;;;;11.32;9.10;;;;;;;33.40;36.00;99642.28;5010947;28;20050;-68
2021/07/20 11:05:45;;;;;;;11.02;9.63;;;;;;;32.98;37.43;99613.09;4990927;28;20033;-69
2021/07/20 11:08:12;;;;;;;11.63;9.02;;;;;;;33.38;34.37;99639.69;4991213;28;20104;-74
2021/07/20 11:10:49;;;;;;;10.75;9.07;;;;;;;33.44;34.98;99634.88;4958430;28;20117;-69
2021/07/20 11:13:26;;;;;;;9.65;8.45;;;;;;;32.90;38.37;99651.06;4991029;28;20042;-68
2021/07/20 11:15:54;;;;;;;13.07;9.20;;;;;;;33.27;37.16;99646.75;4990826;28;20030;-68
2021/07/20 11:18:24;;;;;;;11.80;8.88;;;;;;;33.53;37.35;99612.78;4990984;28;20034;-75
2021/07/20 11:20:51;;;;;;;;;;;;;;;33.63;35.08;99640.59;4991270;28;20405;-68
2021/07/20 11:23:19;;;;;;;12.65;9.32;;;;;;;33.28;37.08;99606.50;4990891;28;20027;-68
2021/07/20 11:25:47;;;;;;;12.25;9.15;;;;;;;33.42;35.14;99615.41;4990717;28;20065;-68
2021/07/20 11:28:12;;;;;;;11.25;9.27;;;;;;;33.13;33.88;99600.44;4990871;28;20501;-69
2021/07/20 11:30:40;;;;;;;10.77;9.07;;;;;;;33.57;34.35;99633.00;4990910;28;20077;-68
2021/07/20 11:33:14;;;;;;;24.23;10.65;;;;;;;33.81;35.92;99632.16;4990689;28;20066;-68
2021/07/20 11:35:44;;;;;;;14.93;10.23;;;;;;;34.22;36.78;99630.94;4997914;28;20046;-69
2021/07/20 11:38:13;;;;;;;13.85;9.60;;;;;;;34.24;36.89;99633.50;5014456;28;20413;-68
2021/07/20 11:40:50;;;;;;;11.52;9.75;;;;;;;33.81;37.95;99630.38;5032182;28;20029;-68
2021/07/20 11:43:26;;;;;;;10.48;9.40;;;;;;;34.08;35.84;99623.09;5030175;28;20034;-68
2021/07/20 11:46:06;;;;;;;11.52;9.23;;;;;;;34.30;36.33;99617.81;5032331;28;20032;-68
2021/07/20 11:49:01;;;;;;;13.85;9.60;;;;;;;34.37;34.30;99625.41;5031809;28;20083;-68